sensor_id;sensor_type;location;lat;lon;timestamp;P1;durP1;ratioP1;P2;durP2;ratioP2
28629;SDS011;15817;42.130;24.762;2023-03-01T00:17:59;1.90;;;1.70;;
28629;SDS011;15817;42.130;24.762;2023-03-01T00:25:45;2.08;;;1.65;;
28629;SDS011;15817;42.130;24.762;2023-03-01T00:41:09;2.30;;;1.90;;
28629;SDS011;15817;42.130;24.762;2023-03-01T00:44:51;3.00;;;2.30;;
28629;SDS011;15817;42.130;24.762;2023-03-01T00:56:39;2.53;;;2.20;;
28629;SDS011;15817;42.130;24.762;2023-03-01T00:59:48;2.72;;;2.25;;
28629;SDS011;15817;42.130;24.762;2023-03-01T01:03:06;2.05;;;1.80;;
28629;SDS011;15817;42.130;24.762;2023-03-01T01:06:06;2.58;;;2.13;;
28629;SDS011;15817;42.130;24.762;2023-03-01T01:08:59;3.85;;;2.53;;
28629;SDS011;15817;42.130;24.762;2023-03-01T01:11:39;2.22;;;2.03;;
28629;SDS011;15817;42.130;24.762;2023-03-01T01:14:15;3.38;;;2.25;;
28629;SDS011;15817;42.130;24.762;2023-03-01T01:16:44;2.78;;;2.45;;
28629;SDS011;15817;42.130;24.762;2023-03-01T01:19:24;2.53;;;2.13;;
28629;SDS011;15817;42.130;24.762;2023-03-01T01:22:32;2.60;;;2.40;;
28629;SDS011;15817;42.130;24.762;2023-03-01T01:25:04;2.88;;;2.53;;
28629;SDS011;15817;42.130;24.762;2023-03-01T01:27:51;3.45;;;2.50;;
28629;SDS011;15817;42.130;24.762;2023-03-01T01:30:22;3.47;;;2.78;;
28629;SDS011;15817;42.130;24.762;2023-03-01T01:32:57;2.80;;;2.60;;
28629;SDS011;15817;42.130;24.762;2023-03-01T01:38:13;2.80;;;2.60;;
28629;SDS011;15817;42.130;24.762;2023-03-01T01:40:43;2.60;;;2.40;;
28629;SDS011;15817;42.130;24.762;2023-03-01T01:45:47;2.60;;;2.38;;
28629;SDS011;15817;42.130;24.762;2023-03-01T01:48:16;2.13;;;2.00;;
28629;SDS011;15817;42.130;24.762;2023-03-01T01:50:45;3.13;;;2.53;;
28629;SDS011;15817;42.130;24.762;2023-03-01T01:53:40;2.25;;;2.05;;
28629;SDS011;15817;42.130;24.762;2023-03-01T01:56:19;2.88;;;2.10;;
28629;SDS011;15817;42.130;24.762;2023-03-01T01:58:51;2.28;;;2.08;;
28629;SDS011;15817;42.130;24.762;2023-03-01T02:01:17;2.70;;;2.45;;
28629;SDS011;15817;42.130;24.762;2023-03-01T02:03:44;2.47;;;2.28;;
28629;SDS011;15817;42.130;24.762;2023-03-01T02:06:15;2.80;;;2.20;;
28629;SDS011;15817;42.130;24.762;2023-03-01T02:08:48;2.00;;;1.85;;
28629;SDS011;15817;42.130;24.762;2023-03-01T02:11:15;6.68;;;2.30;;
28629;SDS011;15817;42.130;24.762;2023-03-01T02:13:44;2.40;;;2.20;;
28629;SDS011;15817;42.130;24.762;2023-03-01T02:16:13;2.50;;;2.30;;
28629;SDS011;15817;42.130;24.762;2023-03-01T02:18:40;3.08;;;2.50;;
28629;SDS011;15817;42.130;24.762;2023-03-01T02:21:24;3.25;;;2.95;;
28629;SDS011;15817;42.130;24.762;2023-03-01T02:24:04;5.28;;;3.42;;
28629;SDS011;15817;42.130;24.762;2023-03-01T02:26:48;4.90;;;4.32;;
28629;SDS011;15817;42.130;24.762;2023-03-01T02:29:50;5.20;;;4.53;;
28629;SDS011;15817;42.130;24.762;2023-03-01T02:32:16;6.72;;;5.63;;
28629;SDS011;15817;42.130;24.762;2023-03-01T02:34:53;6.40;;;5.38;;
28629;SDS011;15817;42.130;24.762;2023-03-01T02:37:23;7.30;;;5.15;;
28629;SDS011;15817;42.130;24.762;2023-03-01T02:39:53;4.85;;;4.45;;
28629;SDS011;15817;42.130;24.762;2023-03-01T02:42:26;4.63;;;4.05;;
28629;SDS011;15817;42.130;24.762;2023-03-01T02:45:04;6.00;;;4.47;;
28629;SDS011;15817;42.130;24.762;2023-03-01T02:47:50;4.82;;;4.30;;
28629;SDS011;15817;42.130;24.762;2023-03-01T02:52:57;3.70;;;2.92;;
28629;SDS011;15817;42.130;24.762;2023-03-01T02:55:36;3.38;;;3.08;;
28629;SDS011;15817;42.130;24.762;2023-03-01T02:58:05;3.05;;;2.72;;
28629;SDS011;15817;42.130;24.762;2023-03-01T03:00:37;3.00;;;2.70;;
28629;SDS011;15817;42.130;24.762;2023-03-01T03:03:16;3.60;;;2.72;;
28629;SDS011;15817;42.130;24.762;2023-03-01T03:05:44;4.88;;;2.53;;
28629;SDS011;15817;42.130;24.762;2023-03-01T03:08:15;2.40;;;2.13;;
28629;SDS011;15817;42.130;24.762;2023-03-01T03:10:50;2.70;;;2.50;;
28629;SDS011;15817;42.130;24.762;2023-03-01T03:13:18;3.05;;;2.70;;
28629;SDS011;15817;42.130;24.762;2023-03-01T03:15:47;5.32;;;2.53;;
28629;SDS011;15817;42.130;24.762;2023-03-01T03:18:30;6.65;;;3.22;;
28629;SDS011;15817;42.130;24.762;2023-03-01T03:20:58;3.03;;;2.83;;
28629;SDS011;15817;42.130;24.762;2023-03-01T03:23:24;5.18;;;3.30;;
28629;SDS011;15817;42.130;24.762;2023-03-01T03:25:50;3.67;;;3.10;;
28629;SDS011;15817;42.130;24.762;2023-03-01T03:28:16;4.22;;;3.17;;
28629;SDS011;15817;42.130;24.762;2023-03-01T03:30:45;5.68;;;3.38;;
28629;SDS011;15817;42.130;24.762;2023-03-01T03:33:12;3.17;;;2.88;;
28629;SDS011;15817;42.130;24.762;2023-03-01T03:35:46;3.10;;;2.72;;
28629;SDS011;15817;42.130;24.762;2023-03-01T03:38:13;2.67;;;2.47;;
28629;SDS011;15817;42.130;24.762;2023-03-01T03:40:42;3.00;;;2.63;;
28629;SDS011;15817;42.130;24.762;2023-03-01T03:43:11;2.63;;;2.40;;
28629;SDS011;15817;42.130;24.762;2023-03-01T03:45:49;2.75;;;2.22;;
28629;SDS011;15817;42.130;24.762;2023-03-01T03:48:16;2.70;;;2.50;;
28629;SDS011;15817;42.130;24.762;2023-03-01T03:50:46;2.75;;;2.55;;
28629;SDS011;15817;42.130;24.762;2023-03-01T03:53:13;3.60;;;3.30;;
28629;SDS011;15817;42.130;24.762;2023-03-01T03:55:39;3.88;;;3.47;;
28629;SDS011;15817;42.130;24.762;2023-03-01T03:58:06;4.43;;;3.13;;
28629;SDS011;15817;42.130;24.762;2023-03-01T04:00:34;3.70;;;3.40;;
28629;SDS011;15817;42.130;24.762;2023-03-01T04:03:04;6.03;;;4.18;;
28629;SDS011;15817;42.130;24.762;2023-03-01T04:05:37;4.20;;;3.70;;
28629;SDS011;15817;42.130;24.762;2023-03-01T04:08:04;4.43;;;4.00;;
28629;SDS011;15817;42.130;24.762;2023-03-01T04:10:36;4.70;;;3.85;;
28629;SDS011;15817;42.130;24.762;2023-03-01T04:13:08;5.10;;;4.60;;
28629;SDS011;15817;42.130;24.762;2023-03-01T04:15:36;4.95;;;3.95;;
28629;SDS011;15817;42.130;24.762;2023-03-01T04:18:04;4.00;;;3.60;;
28629;SDS011;15817;42.130;24.762;2023-03-01T04:20:33;4.07;;;3.40;;
28629;SDS011;15817;42.130;24.762;2023-03-01T04:23:02;3.25;;;3.05;;
28629;SDS011;15817;42.130;24.762;2023-03-01T04:25:39;4.30;;;3.17;;
28629;SDS011;15817;42.130;24.762;2023-03-01T04:28:08;3.72;;;3.33;;
28629;SDS011;15817;42.130;24.762;2023-03-01T04:30:35;5.22;;;4.32;;
28629;SDS011;15817;42.130;24.762;2023-03-01T04:33:05;4.93;;;3.88;;
28629;SDS011;15817;42.130;24.762;2023-03-01T04:35:32;3.88;;;3.13;;
28629;SDS011;15817;42.130;24.762;2023-03-01T04:37:58;4.43;;;3.92;;
28629;SDS011;15817;42.130;24.762;2023-03-01T04:40:24;5.10;;;3.67;;
28629;SDS011;15817;42.130;24.762;2023-03-01T04:42:50;4.47;;;4.07;;
28629;SDS011;15817;42.130;24.762;2023-03-01T04:45:16;4.30;;;3.90;;
28629;SDS011;15817;42.130;24.762;2023-03-01T04:47:46;4.82;;;4.40;;
28629;SDS011;15817;42.130;24.762;2023-03-01T04:50:13;6.68;;;5.65;;
28629;SDS011;15817;42.130;24.762;2023-03-01T04:52:41;5.88;;;5.35;;
28629;SDS011;15817;42.130;24.762;2023-03-01T04:55:08;7.00;;;6.30;;
28629;SDS011;15817;42.130;24.762;2023-03-01T04:57:34;7.43;;;6.53;;
28629;SDS011;15817;42.130;24.762;2023-03-01T05:00:01;7.55;;;6.75;;
28629;SDS011;15817;42.130;24.762;2023-03-01T05:02:46;9.52;;;7.65;;
28629;SDS011;15817;42.130;24.762;2023-03-01T05:05:35;11.02;;;8.27;;
28629;SDS011;15817;42.130;24.762;2023-03-01T05:08:07;10.35;;;8.27;;
28629;SDS011;15817;42.130;24.762;2023-03-01T05:10:48;9.32;;;8.30;;
28629;SDS011;15817;42.130;24.762;2023-03-01T05:13:20;10.43;;;9.20;;
28629;SDS011;15817;42.130;24.762;2023-03-01T05:15:53;10.85;;;8.73;;
28629;SDS011;15817;42.130;24.762;2023-03-01T05:18:21;8.98;;;7.25;;
28629;SDS011;15817;42.130;24.762;2023-03-01T05:20:56;8.00;;;7.20;;
28629;SDS011;15817;42.130;24.762;2023-03-01T05:23:38;7.95;;;6.40;;
28629;SDS011;15817;42.130;24.762;2023-03-01T05:29:51;7.40;;;5.88;;
28629;SDS011;15817;42.130;24.762;2023-03-01T05:32:16;5.82;;;5.13;;
28629;SDS011;15817;42.130;24.762;2023-03-01T05:34:42;5.90;;;5.20;;
28629;SDS011;15817;42.130;24.762;2023-03-01T05:37:11;8.77;;;5.13;;
28629;SDS011;15817;42.130;24.762;2023-03-01T05:39:40;6.00;;;5.10;;
28629;SDS011;15817;42.130;24.762;2023-03-01T05:42:09;6.80;;;6.10;;
28629;SDS011;15817;42.130;24.762;2023-03-01T05:44:36;6.97;;;5.97;;
28629;SDS011;15817;42.130;24.762;2023-03-01T05:47:02;7.43;;;5.63;;
28629;SDS011;15817;42.130;24.762;2023-03-01T05:49:31;11.30;;;8.77;;
28629;SDS011;15817;42.130;24.762;2023-03-01T05:51:57;9.57;;;8.52;;
28629;SDS011;15817;42.130;24.762;2023-03-01T05:54:23;9.10;;;7.68;;
28629;SDS011;15817;42.130;24.762;2023-03-01T05:56:49;9.55;;;7.60;;
28629;SDS011;15817;42.130;24.762;2023-03-01T05:59:17;10.23;;;8.95;;
28629;SDS011;15817;42.130;24.762;2023-03-01T06:01:43;10.18;;;7.45;;
28629;SDS011;15817;42.130;24.762;2023-03-01T06:04:08;9.88;;;7.22;;
28629;SDS011;15817;42.130;24.762;2023-03-01T06:06:37;9.80;;;7.80;;
28629;SDS011;15817;42.130;24.762;2023-03-01T06:09:15;10.05;;;7.47;;
28629;SDS011;15817;42.130;24.762;2023-03-01T06:11:41;7.70;;;6.40;;
28629;SDS011;15817;42.130;24.762;2023-03-01T06:14:09;6.53;;;5.72;;
28629;SDS011;15817;42.130;24.762;2023-03-01T06:16:40;7.55;;;5.95;;
28629;SDS011;15817;42.130;24.762;2023-03-01T06:19:05;8.85;;;5.75;;
28629;SDS011;15817;42.130;24.762;2023-03-01T06:21:34;5.93;;;5.43;;
28629;SDS011;15817;42.130;24.762;2023-03-01T06:24:00;7.43;;;5.50;;
28629;SDS011;15817;42.130;24.762;2023-03-01T06:26:26;7.60;;;5.15;;
28629;SDS011;15817;42.130;24.762;2023-03-01T06:28:54;6.53;;;5.00;;
28629;SDS011;15817;42.130;24.762;2023-03-01T06:31:20;5.18;;;4.75;;
28629;SDS011;15817;42.130;24.762;2023-03-01T06:33:46;6.72;;;4.72;;
28629;SDS011;15817;42.130;24.762;2023-03-01T06:36:12;8.40;;;5.85;;
28629;SDS011;15817;42.130;24.762;2023-03-01T06:38:40;8.85;;;5.85;;
28629;SDS011;15817;42.130;24.762;2023-03-01T06:41:07;6.10;;;5.50;;
28629;SDS011;15817;42.130;24.762;2023-03-01T06:43:47;9.18;;;7.75;;
28629;SDS011;15817;42.130;24.762;2023-03-01T06:46:13;8.45;;;7.35;;
28629;SDS011;15817;42.130;24.762;2023-03-01T06:48:39;12.65;;;10.77;;
28629;SDS011;15817;42.130;24.762;2023-03-01T06:51:05;11.93;;;10.70;;
28629;SDS011;15817;42.130;24.762;2023-03-01T06:53:42;15.20;;;13.02;;
28629;SDS011;15817;42.130;24.762;2023-03-01T06:56:15;15.77;;;13.35;;
28629;SDS011;15817;42.130;24.762;2023-03-01T06:58:41;14.32;;;12.40;;
28629;SDS011;15817;42.130;24.762;2023-03-01T07:01:07;14.45;;;11.32;;
28629;SDS011;15817;42.130;24.762;2023-03-01T07:03:34;13.20;;;8.05;;
28629;SDS011;15817;42.130;24.762;2023-03-01T07:06:00;14.35;;;7.75;;
28629;SDS011;15817;42.130;24.762;2023-03-01T07:08:25;8.02;;;5.88;;
28629;SDS011;15817;42.130;24.762;2023-03-01T07:10:54;7.13;;;5.07;;
28629;SDS011;15817;42.130;24.762;2023-03-01T07:13:21;4.25;;;3.30;;
28629;SDS011;15817;42.130;24.762;2023-03-01T07:15:47;4.18;;;3.00;;
28629;SDS011;15817;42.130;24.762;2023-03-01T07:18:12;4.13;;;3.20;;
28629;SDS011;15817;42.130;24.762;2023-03-01T07:20:38;5.25;;;4.65;;
28629;SDS011;15817;42.130;24.762;2023-03-01T07:23:05;11.93;;;6.30;;
28629;SDS011;15817;42.130;24.762;2023-03-01T07:25:31;6.85;;;4.22;;
28629;SDS011;15817;42.130;24.762;2023-03-01T07:27:57;4.68;;;4.13;;
28629;SDS011;15817;42.130;24.762;2023-03-01T07:30:23;4.70;;;3.72;;
28629;SDS011;15817;42.130;24.762;2023-03-01T07:32:52;6.78;;;5.20;;
28629;SDS011;15817;42.130;24.762;2023-03-01T07:35:18;7.18;;;5.75;;
28629;SDS011;15817;42.130;24.762;2023-03-01T07:37:44;9.25;;;6.15;;
28629;SDS011;15817;42.130;24.762;2023-03-01T07:40:10;7.53;;;4.90;;
28629;SDS011;15817;42.130;24.762;2023-03-01T07:42:37;9.52;;;5.30;;
28629;SDS011;15817;42.130;24.762;2023-03-01T07:45:03;6.38;;;4.53;;
28629;SDS011;15817;42.130;24.762;2023-03-01T07:47:30;12.77;;;7.03;;
28629;SDS011;15817;42.130;24.762;2023-03-01T07:49:56;8.73;;;5.57;;
28629;SDS011;15817;42.130;24.762;2023-03-01T07:52:22;10.73;;;6.68;;
28629;SDS011;15817;42.130;24.762;2023-03-01T07:55:03;13.00;;;8.18;;
28629;SDS011;15817;42.130;24.762;2023-03-01T07:57:31;6.40;;;3.75;;
28629;SDS011;15817;42.130;24.762;2023-03-01T07:59:57;6.82;;;4.55;;
28629;SDS011;15817;42.130;24.762;2023-03-01T08:02:25;9.77;;;5.88;;
28629;SDS011;15817;42.130;24.762;2023-03-01T08:04:51;8.63;;;5.70;;
28629;SDS011;15817;42.130;24.762;2023-03-01T08:07:17;6.22;;;5.38;;
28629;SDS011;15817;42.130;24.762;2023-03-01T08:09:46;7.53;;;6.30;;
28629;SDS011;15817;42.130;24.762;2023-03-01T08:12:11;6.85;;;5.85;;
28629;SDS011;15817;42.130;24.762;2023-03-01T08:14:37;11.00;;;7.10;;
28629;SDS011;15817;42.130;24.762;2023-03-01T08:17:03;12.52;;;7.18;;
28629;SDS011;15817;42.130;24.762;2023-03-01T08:19:29;13.15;;;9.07;;
28629;SDS011;15817;42.130;24.762;2023-03-01T08:21:55;15.32;;;13.38;;
28629;SDS011;15817;42.130;24.762;2023-03-01T08:24:23;10.68;;;9.57;;
28629;SDS011;15817;42.130;24.762;2023-03-01T08:26:52;11.13;;;6.20;;
28629;SDS011;15817;42.130;24.762;2023-03-01T08:29:18;8.23;;;5.20;;
28629;SDS011;15817;42.130;24.762;2023-03-01T08:31:44;9.55;;;7.60;;
28629;SDS011;15817;42.130;24.762;2023-03-01T08:34:11;12.18;;;8.88;;
28629;SDS011;15817;42.130;24.762;2023-03-01T08:36:39;7.55;;;4.25;;
28629;SDS011;15817;42.130;24.762;2023-03-01T08:39:08;11.30;;;7.50;;
28629;SDS011;15817;42.130;24.762;2023-03-01T08:41:35;19.90;;;12.52;;
28629;SDS011;15817;42.130;24.762;2023-03-01T08:44:02;6.10;;;4.28;;
28629;SDS011;15817;42.130;24.762;2023-03-01T08:46:32;4.97;;;3.42;;
28629;SDS011;15817;42.130;24.762;2023-03-01T08:49:20;4.70;;;3.25;;
28629;SDS011;15817;42.130;24.762;2023-03-01T08:51:46;8.30;;;5.63;;
28629;SDS011;15817;42.130;24.762;2023-03-01T08:54:13;7.80;;;6.22;;
28629;SDS011;15817;42.130;24.762;2023-03-01T08:56:41;5.53;;;4.05;;
28629;SDS011;15817;42.130;24.762;2023-03-01T08:59:15;5.35;;;3.92;;
28629;SDS011;15817;42.130;24.762;2023-03-01T09:01:42;4.75;;;2.42;;
28629;SDS011;15817;42.130;24.762;2023-03-01T09:04:11;4.45;;;3.00;;
28629;SDS011;15817;42.130;24.762;2023-03-01T09:06:37;4.32;;;3.03;;
28629;SDS011;15817;42.130;24.762;2023-03-01T09:09:04;3.00;;;2.30;;
28629;SDS011;15817;42.130;24.762;2023-03-01T09:11:31;4.18;;;1.88;;
28629;SDS011;15817;42.130;24.762;2023-03-01T09:13:58;2.25;;;1.65;;
28629;SDS011;15817;42.130;24.762;2023-03-01T09:16:24;2.50;;;2.30;;
28629;SDS011;15817;42.130;24.762;2023-03-01T09:19:01;3.17;;;2.78;;
28629;SDS011;15817;42.130;24.762;2023-03-01T09:21:28;2.20;;;2.00;;
28629;SDS011;15817;42.130;24.762;2023-03-01T09:24:00;8.10;;;1.75;;
28629;SDS011;15817;42.130;24.762;2023-03-01T09:26:26;2.63;;;2.42;;
28629;SDS011;15817;42.130;24.762;2023-03-01T09:28:54;10.35;;;2.60;;
28629;SDS011;15817;42.130;24.762;2023-03-01T09:31:21;3.58;;;2.58;;
28629;SDS011;15817;42.130;24.762;2023-03-01T09:33:52;2.80;;;2.42;;
28629;SDS011;15817;42.130;24.762;2023-03-01T09:36:20;5.95;;;2.65;;
28629;SDS011;15817;42.130;24.762;2023-03-01T09:38:47;3.17;;;2.88;;
28629;SDS011;15817;42.130;24.762;2023-03-01T09:43:54;4.32;;;3.10;;
28629;SDS011;15817;42.130;24.762;2023-03-01T09:46:29;3.63;;;3.15;;
28629;SDS011;15817;42.130;24.762;2023-03-01T09:49:01;4.50;;;3.15;;
28629;SDS011;15817;42.130;24.762;2023-03-01T09:51:37;5.68;;;3.60;;
28629;SDS011;15817;42.130;24.762;2023-03-01T09:54:03;5.80;;;3.15;;
28629;SDS011;15817;42.130;24.762;2023-03-01T09:56:37;4.57;;;3.47;;
28629;SDS011;15817;42.130;24.762;2023-03-01T10:02:09;4.45;;;3.60;;
28629;SDS011;15817;42.130;24.762;2023-03-01T10:04:47;4.28;;;3.20;;
28629;SDS011;15817;42.130;24.762;2023-03-01T10:10:04;2.63;;;2.30;;
28629;SDS011;15817;42.130;24.762;2023-03-01T10:12:37;2.25;;;2.05;;
28629;SDS011;15817;42.130;24.762;2023-03-01T10:18:00;1.95;;;1.75;;
28629;SDS011;15817;42.130;24.762;2023-03-01T10:23:10;5.22;;;2.90;;
28629;SDS011;15817;42.130;24.762;2023-03-01T10:31:22;4.38;;;2.58;;
28629;SDS011;15817;42.130;24.762;2023-03-01T10:33:54;3.65;;;2.88;;
28629;SDS011;15817;42.130;24.762;2023-03-01T10:36:28;5.50;;;4.63;;
28629;SDS011;15817;42.130;24.762;2023-03-01T10:38:58;5.65;;;5.07;;
28629;SDS011;15817;42.130;24.762;2023-03-01T10:41:25;7.22;;;5.88;;
28629;SDS011;15817;42.130;24.762;2023-03-01T10:43:53;10.52;;;6.68;;
28629;SDS011;15817;42.130;24.762;2023-03-01T10:46:36;5.95;;;4.22;;
28629;SDS011;15817;42.130;24.762;2023-03-01T10:51:49;4.47;;;2.53;;
28629;SDS011;15817;42.130;24.762;2023-03-01T10:54:31;3.08;;;2.50;;
28629;SDS011;15817;42.130;24.762;2023-03-01T10:57:10;4.25;;;2.22;;
28629;SDS011;15817;42.130;24.762;2023-03-01T11:00:14;2.28;;;1.83;;
28629;SDS011;15817;42.130;24.762;2023-03-01T11:02:50;4.03;;;2.08;;
28629;SDS011;15817;42.130;24.762;2023-03-01T11:06:06;5.43;;;2.65;;
28629;SDS011;15817;42.130;24.762;2023-03-01T11:16:26;4.07;;;2.47;;
28629;SDS011;15817;42.130;24.762;2023-03-01T11:18:55;3.25;;;2.30;;
28629;SDS011;15817;42.130;24.762;2023-03-01T11:21:39;2.40;;;1.60;;
28629;SDS011;15817;42.130;24.762;2023-03-01T11:24:19;2.97;;;2.28;;
28629;SDS011;15817;42.130;24.762;2023-03-01T11:26:54;7.25;;;4.45;;
28629;SDS011;15817;42.130;24.762;2023-03-01T11:32:10;4.15;;;3.75;;
28629;SDS011;15817;42.130;24.762;2023-03-01T11:34:51;4.40;;;3.72;;
28629;SDS011;15817;42.130;24.762;2023-03-01T11:38:32;3.67;;;2.80;;
28629;SDS011;15817;42.130;24.762;2023-03-01T11:41:02;3.63;;;3.25;;
28629;SDS011;15817;42.130;24.762;2023-03-01T11:46:27;3.13;;;2.60;;
28629;SDS011;15817;42.130;24.762;2023-03-01T11:51:41;2.00;;;1.60;;
28629;SDS011;15817;42.130;24.762;2023-03-01T11:57:32;5.25;;;3.92;;
28629;SDS011;15817;42.130;24.762;2023-03-01T12:00:14;12.00;;;10.43;;
28629;SDS011;15817;42.130;24.762;2023-03-01T12:02:56;15.32;;;11.73;;
28629;SDS011;15817;42.130;24.762;2023-03-01T12:08:38;15.20;;;11.98;;
28629;SDS011;15817;42.130;24.762;2023-03-01T12:26:04;9.93;;;8.45;;
28629;SDS011;15817;42.130;24.762;2023-03-01T12:28:42;10.27;;;8.77;;
28629;SDS011;15817;42.130;24.762;2023-03-01T12:37:34;8.25;;;6.97;;
28629;SDS011;15817;42.130;24.762;2023-03-01T12:40:32;7.43;;;6.07;;
28629;SDS011;15817;42.130;24.762;2023-03-01T12:50:02;4.60;;;3.58;;
28629;SDS011;15817;42.130;24.762;2023-03-01T12:52:52;3.38;;;2.85;;
28629;SDS011;15817;42.130;24.762;2023-03-01T12:55:29;3.92;;;2.72;;
28629;SDS011;15817;42.130;24.762;2023-03-01T13:00:35;5.45;;;4.50;;
28629;SDS011;15817;42.130;24.762;2023-03-01T13:03:21;11.27;;;7.82;;
28629;SDS011;15817;42.130;24.762;2023-03-01T13:06:07;13.20;;;9.43;;
28629;SDS011;15817;42.130;24.762;2023-03-01T13:08:46;15.20;;;10.48;;
28629;SDS011;15817;42.130;24.762;2023-03-01T13:11:20;11.13;;;9.07;;
28629;SDS011;15817;42.130;24.762;2023-03-01T13:13:48;12.82;;;9.80;;
28629;SDS011;15817;42.130;24.762;2023-03-01T13:19:10;10.20;;;8.20;;
28629;SDS011;15817;42.130;24.762;2023-03-01T13:22:27;16.52;;;11.75;;
28629;SDS011;15817;42.130;24.762;2023-03-01T13:25:11;15.07;;;10.63;;
28629;SDS011;15817;42.130;24.762;2023-03-01T13:27:44;13.07;;;9.40;;
28629;SDS011;15817;42.130;24.762;2023-03-01T13:36:01;9.85;;;8.82;;
28629;SDS011;15817;42.130;24.762;2023-03-01T13:59:49;12.90;;;8.10;;
28629;SDS011;15817;42.130;24.762;2023-03-01T14:39:57;7.35;;;4.18;;
28629;SDS011;15817;42.130;24.762;2023-03-01T14:43:54;7.00;;;5.10;;
28629;SDS011;15817;42.130;24.762;2023-03-01T15:18:44;9.40;;;3.53;;
28629;SDS011;15817;42.130;24.762;2023-03-01T15:21:45;3.30;;;3.00;;
28629;SDS011;15817;42.130;24.762;2023-03-01T15:37:05;6.65;;;4.25;;
28629;SDS011;15817;42.130;24.762;2023-03-01T15:40:32;7.35;;;4.40;;
28629;SDS011;15817;42.130;24.762;2023-03-01T15:47:34;10.15;;;7.40;;
28629;SDS011;15817;42.130;24.762;2023-03-01T15:54:38;3.70;;;3.33;;
28629;SDS011;15817;42.130;24.762;2023-03-01T15:58:13;8.15;;;5.05;;
28629;SDS011;15817;42.130;24.762;2023-03-01T16:01:30;13.00;;;7.95;;
28629;SDS011;15817;42.130;24.762;2023-03-01T16:04:04;13.77;;;6.97;;
28629;SDS011;15817;42.130;24.762;2023-03-01T16:06:30;9.93;;;6.03;;
28629;SDS011;15817;42.130;24.762;2023-03-01T16:09:09;5.53;;;4.43;;
28629;SDS011;15817;42.130;24.762;2023-03-01T16:11:37;4.43;;;3.92;;
28629;SDS011;15817;42.130;24.762;2023-03-01T16:14:05;4.03;;;3.30;;
28629;SDS011;15817;42.130;24.762;2023-03-01T16:16:31;4.72;;;3.53;;
28629;SDS011;15817;42.130;24.762;2023-03-01T16:19:03;8.95;;;4.63;;
28629;SDS011;15817;42.130;24.762;2023-03-01T16:21:48;10.85;;;6.20;;
28629;SDS011;15817;42.130;24.762;2023-03-01T16:24:24;8.73;;;7.13;;
28629;SDS011;15817;42.130;24.762;2023-03-01T16:27:24;7.03;;;5.45;;
28629;SDS011;15817;42.130;24.762;2023-03-01T16:30:26;4.60;;;4.10;;
28629;SDS011;15817;42.130;24.762;2023-03-01T16:33:46;9.07;;;5.20;;
28629;SDS011;15817;42.130;24.762;2023-03-01T16:36:21;9.95;;;5.10;;
28629;SDS011;15817;42.130;24.762;2023-03-01T16:38:52;9.90;;;5.22;;
28629;SDS011;15817;42.130;24.762;2023-03-01T16:41:23;7.18;;;5.68;;
28629;SDS011;15817;42.130;24.762;2023-03-01T16:43:49;7.03;;;5.70;;
28629;SDS011;15817;42.130;24.762;2023-03-01T16:46:25;9.18;;;5.70;;
28629;SDS011;15817;42.130;24.762;2023-03-01T16:48:55;10.95;;;5.00;;
28629;SDS011;15817;42.130;24.762;2023-03-01T16:51:22;7.07;;;4.80;;
28629;SDS011;15817;42.130;24.762;2023-03-01T16:53:52;5.75;;;4.43;;
28629;SDS011;15817;42.130;24.762;2023-03-01T16:56:18;6.30;;;4.90;;
28629;SDS011;15817;42.130;24.762;2023-03-01T16:58:51;8.02;;;5.38;;
28629;SDS011;15817;42.130;24.762;2023-03-01T17:01:52;8.02;;;6.43;;
28629;SDS011;15817;42.130;24.762;2023-03-01T17:04:21;8.27;;;6.15;;
28629;SDS011;15817;42.130;24.762;2023-03-01T17:06:52;7.93;;;6.40;;
28629;SDS011;15817;42.130;24.762;2023-03-01T17:09:20;9.32;;;6.25;;
28629;SDS011;15817;42.130;24.762;2023-03-01T17:11:52;8.82;;;5.38;;
28629;SDS011;15817;42.130;24.762;2023-03-01T17:14:28;7.85;;;5.78;;
28629;SDS011;15817;42.130;24.762;2023-03-01T17:17:05;8.23;;;5.63;;
28629;SDS011;15817;42.130;24.762;2023-03-01T17:19:51;9.45;;;5.88;;
28629;SDS011;15817;42.130;24.762;2023-03-01T17:22:20;8.23;;;6.35;;
28629;SDS011;15817;42.130;24.762;2023-03-01T17:24:46;8.48;;;6.88;;
28629;SDS011;15817;42.130;24.762;2023-03-01T17:27:12;9.95;;;7.28;;
28629;SDS011;15817;42.130;24.762;2023-03-01T17:30:08;7.80;;;5.85;;
28629;SDS011;15817;42.130;24.762;2023-03-01T17:33:06;11.75;;;6.45;;
28629;SDS011;15817;42.130;24.762;2023-03-01T17:35:48;14.40;;;7.30;;
28629;SDS011;15817;42.130;24.762;2023-03-01T17:39:10;9.70;;;6.22;;
28629;SDS011;15817;42.130;24.762;2023-03-01T17:41:50;8.77;;;5.93;;
28629;SDS011;15817;42.130;24.762;2023-03-01T17:44:40;9.82;;;6.30;;
28629;SDS011;15817;42.130;24.762;2023-03-01T17:47:06;7.22;;;5.88;;
28629;SDS011;15817;42.130;24.762;2023-03-01T17:49:34;9.95;;;6.53;;
28629;SDS011;15817;42.130;24.762;2023-03-01T17:52:00;8.05;;;5.93;;
28629;SDS011;15817;42.130;24.762;2023-03-01T17:54:26;7.88;;;5.65;;
28629;SDS011;15817;42.130;24.762;2023-03-01T17:56:52;7.30;;;5.90;;
28629;SDS011;15817;42.130;24.762;2023-03-01T17:59:22;8.32;;;6.45;;
28629;SDS011;15817;42.130;24.762;2023-03-01T18:02:08;8.18;;;6.80;;
28629;SDS011;15817;42.130;24.762;2023-03-01T18:04:56;7.75;;;6.80;;
28629;SDS011;15817;42.130;24.762;2023-03-01T18:07:26;13.13;;;7.78;;
28629;SDS011;15817;42.130;24.762;2023-03-01T18:09:53;12.13;;;7.65;;
28629;SDS011;15817;42.130;24.762;2023-03-01T18:12:20;9.32;;;7.88;;
28629;SDS011;15817;42.130;24.762;2023-03-01T18:14:49;13.27;;;8.32;;
28629;SDS011;15817;42.130;24.762;2023-03-01T18:17:30;12.30;;;8.70;;
28629;SDS011;15817;42.130;24.762;2023-03-01T18:19:59;12.27;;;8.45;;
28629;SDS011;15817;42.130;24.762;2023-03-01T18:22:28;13.80;;;8.45;;
28629;SDS011;15817;42.130;24.762;2023-03-01T18:25:02;10.30;;;8.70;;
28629;SDS011;15817;42.130;24.762;2023-03-01T18:27:32;10.82;;;8.90;;
28629;SDS011;15817;42.130;24.762;2023-03-01T18:33:25;10.52;;;7.45;;
28629;SDS011;15817;42.130;24.762;2023-03-01T18:36:02;9.43;;;7.70;;
28629;SDS011;15817;42.130;24.762;2023-03-01T18:38:34;10.10;;;8.27;;
28629;SDS011;15817;42.130;24.762;2023-03-01T18:42:02;12.30;;;6.90;;
28629;SDS011;15817;42.130;24.762;2023-03-01T18:44:51;13.70;;;8.85;;
28629;SDS011;15817;42.130;24.762;2023-03-01T18:47:20;17.55;;;9.63;;
28629;SDS011;15817;42.130;24.762;2023-03-01T18:49:53;11.57;;;9.23;;
28629;SDS011;15817;42.130;24.762;2023-03-01T18:52:32;14.82;;;8.68;;
28629;SDS011;15817;42.130;24.762;2023-03-01T18:55:04;14.27;;;9.10;;
28629;SDS011;15817;42.130;24.762;2023-03-01T18:57:35;10.52;;;8.75;;
28629;SDS011;15817;42.130;24.762;2023-03-01T19:00:15;12.85;;;9.15;;
28629;SDS011;15817;42.130;24.762;2023-03-01T19:02:51;15.27;;;9.45;;
28629;SDS011;15817;42.130;24.762;2023-03-01T19:08:32;12.45;;;9.18;;
28629;SDS011;15817;42.130;24.762;2023-03-01T19:11:09;14.52;;;9.10;;
28629;SDS011;15817;42.130;24.762;2023-03-01T19:16:55;11.60;;;8.77;;
28629;SDS011;15817;42.130;24.762;2023-03-01T19:19:38;16.05;;;9.82;;
28629;SDS011;15817;42.130;24.762;2023-03-01T19:22:37;11.32;;;9.10;;
28629;SDS011;15817;42.130;24.762;2023-03-01T19:32:51;13.23;;;10.73;;
28629;SDS011;15817;42.130;24.762;2023-03-01T19:40:18;16.55;;;12.73;;
28629;SDS011;15817;42.130;24.762;2023-03-01T19:44:01;19.23;;;13.38;;
28629;SDS011;15817;42.130;24.762;2023-03-01T19:47:30;18.73;;;15.10;;
28629;SDS011;15817;42.130;24.762;2023-03-01T19:55:24;26.80;;;19.92;;